Terminal Aerodrome Forecast
Issued by NWS St Louis, MO

Home | Current Version | Previous Version | Text Only | Print | Product List | Glossary On
Versions: 1 2 3 4 5 6 7 8 9 10 11 12 13 14 15 16 17 18 19 20 21 22 23 24 25 26 27 28 29
000
FTUS43 KLSX 252300
TAFSTL
TAF
KSTL 252325Z 2600/2706 11008KT P6SM BKN250
     FM260300 08008KT P6SM SCT050 BKN120
     FM261100 02012G20KT 1SM -SN OVC008
     FM261400 36012G20KT 2SM -SN OVC012
     FM261800 34014G20KT 6SM -SHSN OVC015
     FM270000 33012KT P6SM BKN020=

USA.gov is the U.S. government's official web portal to all federal, state and local government web resources and services.